EZY39MF DTNH-EGNT
Flight info
| Callsign | EZY39MF |
|---|---|
| Flight time | 3h 16m |
| Altitude | 36000 |
| Route | VAXAL1D VAXAL A411 TUC UM733 OSMAR DCT PIRIX DCT CAR DCT GIGGI DCT UPDUT DCT CORSI DCT OMEDA DCT MERLU DCT PIGOS DCT BARSO DCT OKTET DCT GIPNO DCT BULOL DCT IDAVO DCT BAGBI DCT SIZZA DCT LAULY DCT BRY DCT CLM DCT KOPOR DCT VESAN DCT RATUK DCT SOVAT L613 MAMUL UY250 RIMTO |
| Aircraft | A320/M-SDE2E3FGHIJ1RWXYZ/LB1 |
Departure
| Time | 2026-05-04 11:33 |
|---|---|
| Airport | Enfidha - Hammamet International Airport (DTNH) |
Arrival
| Time | 2026-05-04 14:49 |
|---|---|
| Airport | Newcastle International Airport (EGNT) |
| Time | Latitude | Longitude | Altitude | Speed | Heading |
|---|---|---|---|---|---|
| 2026-05-04 10:37 | 36.08253 | 10.43648 | 17 ft | 0 kts | 76° |
| 2026-05-04 11:25 | 36.08248 | 10.43624 | 19 ft | 4 kts | 76° |
| 2026-05-04 11:26 | 36.08237 | 10.43565 | 29 ft | 4 kts | 89° |
| 2026-05-04 11:27 | 36.08277 | 10.43520 | 30 ft | 0 kts | 167° |
| 2026-05-04 11:28 | 36.08271 | 10.43520 | 30 ft | 4 kts | 175° |
| 2026-05-04 11:28 | 36.08203 | 10.43518 | 30 ft | 15 kts | 182° |
| 2026-05-04 11:28 | 36.08122 | 10.43516 | 30 ft | 18 kts | 181° |
| 2026-05-04 11:28 | 36.08046 | 10.43373 | 30 ft | 20 kts | 270° |
| 2026-05-04 11:29 | 36.08027 | 10.43215 | 30 ft | 17 kts | 210° |
| 2026-05-04 11:29 | 36.07891 | 10.43193 | 30 ft | 22 kts | 183° |
| 2026-05-04 11:29 | 36.07752 | 10.43149 | 28 ft | 21 kts | 239° |
| 2026-05-04 11:29 | 36.07748 | 10.43030 | 29 ft | 21 kts | 271° |
| 2026-05-04 11:31 | 36.07583 | 10.42228 | 31 ft | 19 kts | 89° |
| 2026-05-04 11:33 | 36.10930 | 10.47715 | 1981 ft | 221 kts | 337° |
| 2026-05-04 11:33 | 36.12453 | 10.46989 | 2277 ft | 247 kts | 337° |
| 2026-05-04 11:33 | 36.14156 | 10.46189 | 2779 ft | 268 kts | 341° |
| 2026-05-04 11:34 | 36.16012 | 10.46001 | 3445 ft | 279 kts | 10° |
| 2026-05-04 11:34 | 36.17897 | 10.46600 | 4408 ft | 281 kts | 14° |
| 2026-05-04 11:34 | 36.19789 | 10.47216 | 5381 ft | 282 kts | 13° |
| 2026-05-04 11:34 | 36.21689 | 10.47826 | 6226 ft | 282 kts | 13° |
| 2026-05-04 11:35 | 36.23587 | 10.48428 | 7050 ft | 282 kts | 13° |
| 2026-05-04 11:35 | 36.25490 | 10.49035 | 7850 ft | 283 kts | 13° |
| 2026-05-04 11:35 | 36.27427 | 10.49484 | 8608 ft | 283 kts | 1° |
| 2026-05-04 11:35 | 36.29392 | 10.49359 | 9422 ft | 284 kts | 347° |
| 2026-05-04 11:36 | 36.31274 | 10.48662 | 10233 ft | 283 kts | 336° |
| 2026-05-04 11:36 | 36.33177 | 10.47727 | 10460 ft | 305 kts | 337° |
| 2026-05-04 11:36 | 36.35226 | 10.46727 | 10677 ft | 325 kts | 337° |
| 2026-05-04 11:36 | 36.37382 | 10.45767 | 11238 ft | 333 kts | 341° |
| 2026-05-04 11:37 | 36.39608 | 10.44934 | 11903 ft | 336 kts | 342° |
| 2026-05-04 11:37 | 36.41875 | 10.44141 | 12561 ft | 340 kts | 343° |
| 2026-05-04 11:37 | 36.44167 | 10.43363 | 13257 ft | 343 kts | 343° |
| 2026-05-04 11:37 | 36.46481 | 10.42579 | 13969 ft | 347 kts | 343° |
| 2026-05-04 11:38 | 36.48816 | 10.41783 | 14555 ft | 349 kts | 342° |
| 2026-05-04 11:38 | 36.51167 | 10.40976 | 15150 ft | 352 kts | 342° |
| 2026-05-04 11:38 | 36.53538 | 10.40156 | 15743 ft | 354 kts | 342° |
| 2026-05-04 11:38 | 36.55925 | 10.39325 | 16327 ft | 358 kts | 342° |
| 2026-05-04 11:39 | 36.58329 | 10.38484 | 16924 ft | 360 kts | 342° |
| 2026-05-04 11:39 | 36.60750 | 10.37634 | 17486 ft | 363 kts | 341° |
| 2026-05-04 11:40 | 36.75666 | 10.32416 | 20461 ft | 379 kts | 341° |
| 2026-05-04 11:41 | 36.78219 | 10.31525 | 20894 ft | 382 kts | 341° |
| 2026-05-04 11:41 | 36.80783 | 10.30627 | 21327 ft | 384 kts | 341° |
| 2026-05-04 11:41 | 36.83370 | 10.29720 | 21785 ft | 387 kts | 341° |
| 2026-05-04 11:41 | 36.85972 | 10.28807 | 22222 ft | 390 kts | 341° |
| 2026-05-04 11:42 | 36.88590 | 10.27887 | 22655 ft | 392 kts | 341° |
| 2026-05-04 11:42 | 36.91227 | 10.26962 | 23090 ft | 395 kts | 341° |
| 2026-05-04 11:42 | 36.93881 | 10.26027 | 23528 ft | 398 kts | 341° |
| 2026-05-04 11:42 | 36.96551 | 10.25083 | 23882 ft | 400 kts | 341° |
| 2026-05-04 11:43 | 36.99232 | 10.24137 | 24227 ft | 402 kts | 341° |
| 2026-05-04 11:43 | 37.01928 | 10.23184 | 24564 ft | 403 kts | 341° |
| 2026-05-04 11:43 | 37.04635 | 10.22224 | 24898 ft | 405 kts | 341° |
| 2026-05-04 11:43 | 37.07350 | 10.21255 | 25238 ft | 406 kts | 341° |
| 2026-05-04 11:44 | 37.10073 | 10.20282 | 25571 ft | 408 kts | 340° |
| 2026-05-04 11:44 | 37.12810 | 10.19304 | 25902 ft | 410 kts | 340° |
| 2026-05-04 11:44 | 37.15555 | 10.18326 | 26224 ft | 411 kts | 340° |
| 2026-05-04 11:44 | 37.18313 | 10.17347 | 26565 ft | 413 kts | 340° |
| 2026-05-04 11:45 | 37.21085 | 10.16364 | 26902 ft | 414 kts | 340° |
| 2026-05-04 11:45 | 37.23865 | 10.15378 | 27233 ft | 416 kts | 340° |
| 2026-05-04 11:45 | 37.26659 | 10.14387 | 27545 ft | 418 kts | 340° |
| 2026-05-04 11:45 | 37.29459 | 10.13393 | 27850 ft | 419 kts | 340° |
| 2026-05-04 11:46 | 37.32270 | 10.12390 | 28154 ft | 421 kts | 340° |
| 2026-05-04 11:46 | 37.35094 | 10.11376 | 28465 ft | 422 kts | 340° |
| 2026-05-04 11:46 | 37.37927 | 10.10361 | 28755 ft | 424 kts | 340° |
| 2026-05-04 11:46 | 37.40769 | 10.09344 | 29050 ft | 426 kts | 340° |
| 2026-05-04 11:47 | 37.43582 | 10.08338 | 29320 ft | 427 kts | 340° |
| 2026-05-04 11:47 | 37.46440 | 10.07315 | 29600 ft | 428 kts | 340° |
| 2026-05-04 11:47 | 37.49312 | 10.06289 | 29860 ft | 430 kts | 340° |
| 2026-05-04 11:47 | 37.52198 | 10.05258 | 30123 ft | 431 kts | 340° |
| 2026-05-04 11:48 | 37.55085 | 10.04226 | 30341 ft | 432 kts | 340° |
| 2026-05-04 11:48 | 37.57977 | 10.03189 | 30608 ft | 432 kts | 340° |
| 2026-05-04 11:48 | 37.60866 | 10.02151 | 30920 ft | 431 kts | 339° |
| 2026-05-04 11:48 | 37.63744 | 10.01116 | 31241 ft | 429 kts | 339° |
| 2026-05-04 11:49 | 37.66611 | 10.00086 | 31548 ft | 428 kts | 339° |
| 2026-05-04 11:49 | 37.69473 | 9.99056 | 31856 ft | 427 kts | 339° |
| 2026-05-04 11:49 | 37.72330 | 9.98024 | 32158 ft | 426 kts | 339° |
| 2026-05-04 11:49 | 37.75178 | 9.96996 | 32454 ft | 425 kts | 339° |
| 2026-05-04 11:50 | 37.78022 | 9.95969 | 32759 ft | 424 kts | 339° |
| 2026-05-04 11:50 | 37.80853 | 9.94944 | 33055 ft | 423 kts | 339° |
| 2026-05-04 11:50 | 37.83679 | 9.93922 | 33368 ft | 422 kts | 339° |
| 2026-05-04 11:50 | 37.86503 | 9.92902 | 33655 ft | 421 kts | 338° |
| 2026-05-04 11:51 | 37.89318 | 9.91884 | 33950 ft | 420 kts | 338° |
| 2026-05-04 11:51 | 37.92123 | 9.90869 | 34232 ft | 419 kts | 338° |
| 2026-05-04 11:51 | 37.94925 | 9.89853 | 34487 ft | 418 kts | 338° |
| 2026-05-04 11:51 | 37.97717 | 9.88839 | 34728 ft | 417 kts | 338° |
| 2026-05-04 11:52 | 38.00503 | 9.87829 | 34965 ft | 416 kts | 338° |
| 2026-05-04 11:52 | 38.03287 | 9.86818 | 35194 ft | 415 kts | 338° |
| 2026-05-04 11:52 | 38.06058 | 9.85807 | 35417 ft | 414 kts | 338° |
| 2026-05-04 11:52 | 38.08827 | 9.84796 | 35637 ft | 414 kts | 338° |
| 2026-05-04 11:53 | 38.11591 | 9.83785 | 35846 ft | 413 kts | 338° |
| 2026-05-04 11:53 | 38.14351 | 9.82776 | 36024 ft | 413 kts | 338° |
| 2026-05-04 11:53 | 38.17103 | 9.81772 | 36082 ft | 411 kts | 338° |
| 2026-05-04 11:55 | 38.39184 | 9.74302 | 36087 ft | 411 kts | 340° |
| 2026-05-04 11:56 | 38.44730 | 9.72547 | 36094 ft | 410 kts | 339° |
| 2026-05-04 11:56 | 38.50263 | 9.70765 | 36102 ft | 410 kts | 339° |
| 2026-05-04 11:57 | 38.55789 | 9.68979 | 36105 ft | 410 kts | 339° |
| 2026-05-04 11:57 | 38.61314 | 9.67189 | 36108 ft | 409 kts | 339° |
| 2026-05-04 11:58 | 38.66828 | 9.65397 | 36110 ft | 409 kts | 339° |
| 2026-05-04 11:58 | 38.72339 | 9.63608 | 36109 ft | 408 kts | 339° |
| 2026-05-04 11:59 | 38.77849 | 9.61832 | 36116 ft | 408 kts | 339° |
| 2026-05-04 11:59 | 38.83353 | 9.60047 | 36109 ft | 408 kts | 339° |
| 2026-05-04 12:00 | 38.88850 | 9.58252 | 36112 ft | 407 kts | 339° |
| 2026-05-04 12:00 | 38.94340 | 9.56436 | 36117 ft | 407 kts | 339° |
| 2026-05-04 12:01 | 38.99820 | 9.54597 | 36113 ft | 407 kts | 339° |
| 2026-05-04 12:02 | 39.19030 | 9.48393 | 36111 ft | 409 kts | 341° |
| 2026-05-04 12:03 | 39.24591 | 9.46797 | 36104 ft | 410 kts | 341° |
| 2026-05-04 12:03 | 39.30158 | 9.45174 | 36099 ft | 410 kts | 340° |
| 2026-05-04 12:04 | 39.35715 | 9.43518 | 36089 ft | 410 kts | 340° |
| 2026-05-04 12:04 | 39.41285 | 9.41846 | 36107 ft | 411 kts | 340° |
| 2026-05-04 12:05 | 39.46863 | 9.40173 | 36132 ft | 412 kts | 340° |
| 2026-05-04 12:05 | 39.52453 | 9.38498 | 36144 ft | 413 kts | 340° |
| 2026-05-04 12:06 | 39.58049 | 9.36821 | 36150 ft | 414 kts | 340° |
| 2026-05-04 12:06 | 39.63664 | 9.35138 | 36161 ft | 414 kts | 339° |
| 2026-05-04 12:07 | 39.69284 | 9.33450 | 36152 ft | 415 kts | 339° |
| 2026-05-04 12:07 | 39.74908 | 9.31754 | 36151 ft | 415 kts | 339° |
| 2026-05-04 12:08 | 39.80543 | 9.30057 | 36145 ft | 416 kts | 339° |
| 2026-05-04 12:08 | 39.86179 | 9.28357 | 36129 ft | 416 kts | 339° |
| 2026-05-04 12:09 | 39.91822 | 9.26649 | 36117 ft | 416 kts | 339° |
| 2026-05-04 12:09 | 39.97464 | 9.24940 | 36103 ft | 416 kts | 338° |
| 2026-05-04 12:10 | 40.03115 | 9.23219 | 36092 ft | 424 kts | 338° |
| 2026-05-04 12:10 | 40.08965 | 9.21429 | 36090 ft | 433 kts | 338° |
| 2026-05-04 12:11 | 40.14823 | 9.19642 | 36088 ft | 436 kts | 338° |
| 2026-05-04 12:11 | 40.20746 | 9.17842 | 36090 ft | 438 kts | 338° |
| 2026-05-04 12:12 | 40.26678 | 9.16032 | 36086 ft | 438 kts | 338° |
| 2026-05-04 12:12 | 40.32599 | 9.14194 | 36087 ft | 438 kts | 338° |
| 2026-05-04 12:14 | 40.56326 | 9.06721 | 36086 ft | 439 kts | 338° |
| 2026-05-04 12:15 | 40.61267 | 9.05165 | 36092 ft | 439 kts | 338° |
| 2026-05-04 12:15 | 40.67214 | 9.03285 | 36091 ft | 439 kts | 338° |
| 2026-05-04 12:16 | 40.73157 | 9.01397 | 36096 ft | 440 kts | 338° |
| 2026-05-04 12:16 | 40.79109 | 8.99511 | 36097 ft | 440 kts | 338° |
| 2026-05-04 12:17 | 40.85059 | 8.97616 | 36089 ft | 439 kts | 338° |
| 2026-05-04 12:17 | 40.91005 | 8.95718 | 36086 ft | 440 kts | 338° |
| 2026-05-04 12:18 | 40.96964 | 8.93825 | 36076 ft | 441 kts | 338° |
| 2026-05-04 12:18 | 41.02931 | 8.91928 | 36076 ft | 441 kts | 338° |
| 2026-05-04 12:19 | 41.08885 | 8.90020 | 36078 ft | 441 kts | 338° |
| 2026-05-04 12:19 | 41.14853 | 8.88120 | 36082 ft | 442 kts | 338° |
| 2026-05-04 12:20 | 41.20820 | 8.86196 | 36083 ft | 441 kts | 338° |
| 2026-05-04 12:20 | 41.26771 | 8.84212 | 36088 ft | 439 kts | 335° |
| 2026-05-04 12:21 | 41.32567 | 8.81773 | 36097 ft | 436 kts | 333° |
| 2026-05-04 12:21 | 41.38283 | 8.79090 | 36102 ft | 435 kts | 332° |
| 2026-05-04 12:22 | 41.44013 | 8.76436 | 36101 ft | 437 kts | 333° |
| 2026-05-04 12:22 | 41.49776 | 8.73857 | 36093 ft | 437 kts | 333° |
| 2026-05-04 12:23 | 41.55555 | 8.71285 | 36093 ft | 438 kts | 333° |
| 2026-05-04 12:23 | 41.61337 | 8.68701 | 36079 ft | 438 kts | 333° |
| 2026-05-04 12:24 | 41.67111 | 8.66101 | 36068 ft | 438 kts | 333° |
| 2026-05-04 12:24 | 41.72895 | 8.63496 | 36066 ft | 439 kts | 333° |
| 2026-05-04 12:25 | 41.78613 | 8.60934 | 36057 ft | 425 kts | 333° |
| 2026-05-04 12:25 | 41.84179 | 8.58426 | 36057 ft | 420 kts | 333° |
| 2026-05-04 12:26 | 41.89715 | 8.55904 | 36057 ft | 420 kts | 333° |
| 2026-05-04 12:26 | 41.95249 | 8.53385 | 36056 ft | 420 kts | 333° |
| 2026-05-04 12:27 | 42.00795 | 8.50868 | 36058 ft | 421 kts | 333° |
| 2026-05-04 12:27 | 42.06342 | 8.48337 | 36060 ft | 421 kts | 333° |
| 2026-05-04 12:28 | 42.11887 | 8.45804 | 36067 ft | 421 kts | 333° |
| 2026-05-04 12:28 | 42.17441 | 8.43269 | 36067 ft | 422 kts | 333° |
| 2026-05-04 12:29 | 42.22999 | 8.40731 | 36071 ft | 422 kts | 333° |
| 2026-05-04 12:29 | 42.28556 | 8.38178 | 36070 ft | 422 kts | 332° |
| 2026-05-04 12:30 | 42.33972 | 8.35380 | 36072 ft | 413 kts | 323° |
| 2026-05-04 12:30 | 42.38981 | 8.31650 | 36068 ft | 411 kts | 323° |
| 2026-05-04 12:31 | 42.43993 | 8.27899 | 36071 ft | 412 kts | 323° |
| 2026-05-04 12:31 | 42.49006 | 8.24136 | 36073 ft | 412 kts | 323° |
| 2026-05-04 12:32 | 42.56518 | 8.18477 | 36075 ft | 412 kts | 322° |
| 2026-05-04 12:33 | 42.61531 | 8.14696 | 36080 ft | 412 kts | 323° |
| 2026-05-04 12:33 | 42.66547 | 8.10905 | 36079 ft | 413 kts | 323° |
| 2026-05-04 12:34 | 42.71567 | 8.07110 | 36080 ft | 413 kts | 323° |
| 2026-05-04 12:34 | 42.76585 | 8.03305 | 36081 ft | 413 kts | 323° |
| 2026-05-04 12:35 | 42.81609 | 7.99496 | 36077 ft | 414 kts | 323° |
| 2026-05-04 12:35 | 42.86641 | 7.95676 | 36075 ft | 414 kts | 323° |
| 2026-05-04 12:36 | 42.91670 | 7.91842 | 36068 ft | 414 kts | 323° |
| 2026-05-04 12:36 | 42.96707 | 7.88003 | 36070 ft | 415 kts | 323° |
| 2026-05-04 12:37 | 43.01756 | 7.84143 | 36076 ft | 416 kts | 323° |
| 2026-05-04 12:37 | 43.06799 | 7.80269 | 36067 ft | 416 kts | 323° |
| 2026-05-04 12:38 | 43.11846 | 7.76378 | 36065 ft | 417 kts | 323° |
| 2026-05-04 12:38 | 43.16908 | 7.72474 | 36068 ft | 418 kts | 323° |
| 2026-05-04 12:39 | 43.21978 | 7.68558 | 36078 ft | 419 kts | 323° |
| 2026-05-04 12:39 | 43.27054 | 7.64624 | 36075 ft | 419 kts | 323° |
| 2026-05-04 12:40 | 43.32134 | 7.60674 | 36077 ft | 420 kts | 323° |
| 2026-05-04 12:40 | 43.37225 | 7.56706 | 36078 ft | 421 kts | 323° |
| 2026-05-04 12:41 | 43.42314 | 7.52731 | 36082 ft | 421 kts | 323° |
| 2026-05-04 12:41 | 43.47410 | 7.48739 | 36086 ft | 422 kts | 323° |
| 2026-05-04 12:42 | 43.52516 | 7.44728 | 36088 ft | 423 kts | 323° |
| 2026-05-04 12:42 | 43.57632 | 7.40715 | 36092 ft | 423 kts | 323° |
| 2026-05-04 12:43 | 43.62750 | 7.36675 | 36094 ft | 424 kts | 322° |
| 2026-05-04 12:43 | 43.67703 | 7.32332 | 36090 ft | 420 kts | 319° |
| 2026-05-04 12:44 | 43.72532 | 7.27779 | 36087 ft | 420 kts | 319° |
| 2026-05-04 12:44 | 43.77381 | 7.23228 | 36093 ft | 422 kts | 319° |
| 2026-05-04 12:45 | 43.82274 | 7.18726 | 36085 ft | 422 kts | 320° |
| 2026-05-04 12:45 | 43.87173 | 7.14235 | 36080 ft | 422 kts | 320° |
| 2026-05-04 12:46 | 43.92076 | 7.09719 | 36084 ft | 422 kts | 320° |
| 2026-05-04 12:46 | 43.96970 | 7.05199 | 36096 ft | 423 kts | 319° |
| 2026-05-04 12:47 | 44.01870 | 7.00654 | 36107 ft | 424 kts | 320° |
| 2026-05-04 12:47 | 44.06777 | 6.96107 | 36106 ft | 424 kts | 320° |
| 2026-05-04 12:48 | 44.11687 | 6.91548 | 36108 ft | 425 kts | 320° |
| 2026-05-04 12:48 | 44.16605 | 6.86970 | 36116 ft | 425 kts | 319° |
| 2026-05-04 12:49 | 44.21525 | 6.82357 | 36048 ft | 430 kts | 319° |
| 2026-05-04 12:49 | 44.26464 | 6.77729 | 36115 ft | 428 kts | 319° |
| 2026-05-04 12:50 | 44.31416 | 6.73088 | 36115 ft | 429 kts | 319° |
| 2026-05-04 12:50 | 44.36366 | 6.68445 | 36111 ft | 429 kts | 319° |
| 2026-05-04 12:51 | 44.41228 | 6.63855 | 36115 ft | 430 kts | 319° |
| 2026-05-04 12:51 | 44.46183 | 6.59158 | 36114 ft | 431 kts | 319° |
| 2026-05-04 12:52 | 44.51155 | 6.54444 | 36118 ft | 432 kts | 319° |
| 2026-05-04 12:52 | 44.56144 | 6.49732 | 36118 ft | 433 kts | 319° |
| 2026-05-04 12:53 | 44.61130 | 6.44996 | 36119 ft | 434 kts | 319° |
| 2026-05-04 12:53 | 44.66129 | 6.40232 | 36123 ft | 434 kts | 319° |
| 2026-05-04 12:54 | 44.71128 | 6.35462 | 36123 ft | 435 kts | 319° |
| 2026-05-04 12:54 | 44.76131 | 6.30675 | 36118 ft | 435 kts | 319° |
| 2026-05-04 12:55 | 44.81131 | 6.25883 | 36109 ft | 435 kts | 319° |
| 2026-05-04 12:55 | 44.86143 | 6.21074 | 36107 ft | 435 kts | 319° |
| 2026-05-04 12:56 | 44.91150 | 6.16253 | 36097 ft | 437 kts | 319° |
| 2026-05-04 12:56 | 44.96136 | 6.11444 | 36084 ft | 438 kts | 319° |
| 2026-05-04 12:57 | 45.01165 | 6.06585 | 36074 ft | 438 kts | 319° |
| 2026-05-04 12:57 | 45.06202 | 6.01708 | 36064 ft | 439 kts | 320° |
| 2026-05-04 12:58 | 45.11496 | 5.97281 | 36061 ft | 444 kts | 326° |
| 2026-05-04 12:58 | 45.16956 | 5.93154 | 36043 ft | 446 kts | 326° |
| 2026-05-04 12:59 | 45.22453 | 5.89036 | 36045 ft | 447 kts | 326° |
| 2026-05-04 12:59 | 45.27046 | 5.85551 | 36047 ft | 447 kts | 326° |
| 2026-05-04 13:00 | 45.32538 | 5.81353 | 36042 ft | 448 kts | 326° |
| 2026-05-04 13:00 | 45.38025 | 5.77139 | 36054 ft | 449 kts | 326° |
| 2026-05-04 13:01 | 45.43531 | 5.72912 | 36064 ft | 450 kts | 326° |
| 2026-05-04 13:01 | 45.49035 | 5.68669 | 36069 ft | 451 kts | 326° |
| 2026-05-04 13:02 | 45.54522 | 5.64440 | 36071 ft | 452 kts | 326° |
| 2026-05-04 13:02 | 45.60057 | 5.60165 | 36068 ft | 452 kts | 326° |
| 2026-05-04 13:03 | 45.65620 | 5.55858 | 36065 ft | 458 kts | 326° |
| 2026-05-04 13:03 | 45.71275 | 5.51460 | 36062 ft | 465 kts | 326° |
| 2026-05-04 13:04 | 45.76970 | 5.47023 | 36051 ft | 467 kts | 326° |
| 2026-05-04 13:04 | 45.82682 | 5.42568 | 36052 ft | 468 kts | 326° |
| 2026-05-04 13:05 | 45.88397 | 5.38098 | 36047 ft | 468 kts | 326° |
| 2026-05-04 13:05 | 45.94121 | 5.33613 | 36044 ft | 469 kts | 326° |
| 2026-05-04 13:06 | 45.99852 | 5.29117 | 36042 ft | 469 kts | 326° |
| 2026-05-04 13:06 | 46.05584 | 5.24607 | 36035 ft | 470 kts | 326° |
| 2026-05-04 13:07 | 46.11315 | 5.20073 | 36036 ft | 470 kts | 326° |
| 2026-05-04 13:07 | 46.17047 | 5.15531 | 36036 ft | 470 kts | 326° |
| 2026-05-04 13:08 | 46.22777 | 5.10992 | 36033 ft | 471 kts | 326° |
| 2026-05-04 13:08 | 46.28519 | 5.06431 | 36032 ft | 471 kts | 326° |
| 2026-05-04 13:09 | 46.34254 | 5.01850 | 36033 ft | 471 kts | 326° |
| 2026-05-04 13:09 | 46.39998 | 4.97268 | 36028 ft | 472 kts | 326° |
| 2026-05-04 13:10 | 46.45749 | 4.92670 | 36026 ft | 472 kts | 326° |
| 2026-05-04 13:10 | 46.51495 | 4.88047 | 36027 ft | 472 kts | 326° |
| 2026-05-04 13:11 | 46.57244 | 4.83417 | 36029 ft | 472 kts | 326° |
| 2026-05-04 13:11 | 46.62991 | 4.78774 | 36018 ft | 473 kts | 326° |
| 2026-05-04 13:12 | 46.68740 | 4.74129 | 36014 ft | 473 kts | 326° |
| 2026-05-04 13:12 | 46.74489 | 4.69474 | 36016 ft | 473 kts | 326° |
| 2026-05-04 13:13 | 46.80257 | 4.64793 | 36017 ft | 474 kts | 326° |
| 2026-05-04 13:13 | 46.86010 | 4.60105 | 36004 ft | 474 kts | 326° |
| 2026-05-04 13:14 | 46.91774 | 4.55397 | 35997 ft | 475 kts | 326° |
| 2026-05-04 13:14 | 46.97533 | 4.50673 | 35998 ft | 475 kts | 326° |
| 2026-05-04 13:15 | 47.03291 | 4.45921 | 35995 ft | 475 kts | 326° |
| 2026-05-04 13:15 | 47.09056 | 4.41179 | 35992 ft | 475 kts | 326° |
| 2026-05-04 13:16 | 47.14827 | 4.36435 | 35986 ft | 475 kts | 326° |
| 2026-05-04 13:16 | 47.20592 | 4.31666 | 35989 ft | 475 kts | 326° |
| 2026-05-04 13:17 | 47.26303 | 4.26925 | 35986 ft | 475 kts | 326° |
| 2026-05-04 13:17 | 47.32109 | 4.22098 | 35982 ft | 475 kts | 326° |
| 2026-05-04 13:18 | 47.37831 | 4.17335 | 35978 ft | 475 kts | 326° |
| 2026-05-04 13:18 | 47.43583 | 4.12529 | 35975 ft | 475 kts | 326° |
| 2026-05-04 13:19 | 47.49333 | 4.07708 | 35971 ft | 475 kts | 326° |
| 2026-05-04 13:19 | 47.55086 | 4.02876 | 35968 ft | 475 kts | 326° |
| 2026-05-04 13:20 | 47.60835 | 3.98031 | 35972 ft | 475 kts | 326° |
| 2026-05-04 13:20 | 47.66578 | 3.93185 | 35971 ft | 475 kts | 326° |
| 2026-05-04 13:21 | 47.72327 | 3.88316 | 35971 ft | 475 kts | 326° |
| 2026-05-04 13:21 | 47.78074 | 3.83441 | 35968 ft | 475 kts | 326° |
| 2026-05-04 13:22 | 47.83814 | 3.78555 | 35968 ft | 476 kts | 326° |
| 2026-05-04 13:22 | 47.89553 | 3.73663 | 35969 ft | 476 kts | 326° |
| 2026-05-04 13:23 | 47.95298 | 3.68763 | 35968 ft | 476 kts | 326° |
| 2026-05-04 13:23 | 48.01040 | 3.63840 | 35973 ft | 476 kts | 326° |
| 2026-05-04 13:24 | 48.06769 | 3.58908 | 35967 ft | 475 kts | 326° |
| 2026-05-04 13:24 | 48.12499 | 3.53962 | 35970 ft | 476 kts | 326° |
| 2026-05-04 13:25 | 48.21098 | 3.46528 | 35974 ft | 476 kts | 326° |
| 2026-05-04 13:25 | 48.26825 | 3.41567 | 35972 ft | 476 kts | 326° |
| 2026-05-04 13:26 | 48.32548 | 3.36583 | 35975 ft | 476 kts | 326° |
| 2026-05-04 13:26 | 48.38276 | 3.31587 | 35978 ft | 476 kts | 326° |
| 2026-05-04 13:27 | 48.44240 | 3.27210 | 35977 ft | 479 kts | 334° |
| 2026-05-04 13:27 | 48.50388 | 3.23298 | 35977 ft | 479 kts | 334° |
| 2026-05-04 13:28 | 48.56526 | 3.19382 | 35980 ft | 479 kts | 334° |
| 2026-05-04 13:28 | 48.62670 | 3.15444 | 35975 ft | 479 kts | 334° |
| 2026-05-04 13:29 | 48.68805 | 3.11501 | 35972 ft | 479 kts | 334° |
| 2026-05-04 13:29 | 48.74945 | 3.07537 | 35974 ft | 479 kts | 333° |
| 2026-05-04 13:30 | 48.81078 | 3.03568 | 35970 ft | 479 kts | 333° |
| 2026-05-04 13:30 | 48.87045 | 2.99161 | 35970 ft | 476 kts | 327° |
| 2026-05-04 13:31 | 48.92777 | 2.94159 | 35971 ft | 475 kts | 326° |
| 2026-05-04 13:31 | 48.98454 | 2.89167 | 35970 ft | 475 kts | 326° |
| 2026-05-04 13:32 | 49.04107 | 2.84191 | 35971 ft | 471 kts | 326° |
| 2026-05-04 13:32 | 49.09840 | 2.79144 | 35971 ft | 479 kts | 326° |
| 2026-05-04 13:33 | 49.15621 | 2.74038 | 35975 ft | 480 kts | 327° |
| 2026-05-04 13:33 | 49.21390 | 2.68930 | 35974 ft | 480 kts | 327° |
| 2026-05-04 13:34 | 49.27165 | 2.63811 | 35973 ft | 480 kts | 327° |
| 2026-05-04 13:34 | 49.32938 | 2.58688 | 35969 ft | 479 kts | 327° |
| 2026-05-04 13:35 | 49.41586 | 2.50957 | 35973 ft | 479 kts | 327° |
| 2026-05-04 13:36 | 49.47340 | 2.45803 | 35974 ft | 479 kts | 326° |
| 2026-05-04 13:36 | 49.53332 | 2.41270 | 35974 ft | 484 kts | 341° |
| 2026-05-04 13:37 | 49.59807 | 2.38342 | 35974 ft | 485 kts | 341° |
| 2026-05-04 13:37 | 49.66274 | 2.35406 | 35974 ft | 485 kts | 341° |
| 2026-05-04 13:38 | 49.72688 | 2.32485 | 35967 ft | 471 kts | 341° |
| 2026-05-04 13:38 | 49.78920 | 2.29631 | 35972 ft | 465 kts | 341° |
| 2026-05-04 13:39 | 49.85120 | 2.26784 | 35968 ft | 464 kts | 341° |
| 2026-05-04 13:39 | 49.91308 | 2.23945 | 35971 ft | 464 kts | 341° |
| 2026-05-04 13:40 | 49.97492 | 2.21103 | 35972 ft | 464 kts | 341° |
| 2026-05-04 13:40 | 50.03638 | 2.18260 | 35967 ft | 463 kts | 341° |
| 2026-05-04 13:41 | 50.09815 | 2.15400 | 35971 ft | 463 kts | 341° |
| 2026-05-04 13:41 | 50.15995 | 2.12538 | 35975 ft | 463 kts | 341° |
| 2026-05-04 13:42 | 50.25294 | 2.08203 | 35974 ft | 463 kts | 341° |
| 2026-05-04 13:42 | 50.31419 | 2.05328 | 35981 ft | 463 kts | 341° |
| 2026-05-04 13:43 | 50.37376 | 2.01708 | 35978 ft | 457 kts | 326° |
| 2026-05-04 13:43 | 50.42347 | 1.95675 | 35991 ft | 452 kts | 315° |
| 2026-05-04 13:44 | 50.47094 | 1.89193 | 35995 ft | 452 kts | 315° |
| 2026-05-04 13:44 | 50.51838 | 1.82723 | 36008 ft | 452 kts | 315° |
| 2026-05-04 13:45 | 50.55814 | 1.77278 | 36006 ft | 452 kts | 315° |
| 2026-05-04 13:45 | 50.60541 | 1.70757 | 36004 ft | 452 kts | 315° |
| 2026-05-04 13:46 | 50.65228 | 1.64271 | 36002 ft | 452 kts | 315° |
| 2026-05-04 13:46 | 50.69947 | 1.57748 | 36009 ft | 452 kts | 315° |
| 2026-05-04 13:47 | 50.74672 | 1.51203 | 36006 ft | 451 kts | 315° |
| 2026-05-04 13:47 | 50.79418 | 1.44610 | 35995 ft | 451 kts | 315° |
| 2026-05-04 13:48 | 50.84098 | 1.38091 | 36008 ft | 451 kts | 315° |
| 2026-05-04 13:48 | 50.88842 | 1.31476 | 36009 ft | 451 kts | 315° |
| 2026-05-04 13:49 | 50.93546 | 1.24895 | 36020 ft | 451 kts | 315° |
| 2026-05-04 13:49 | 50.98254 | 1.18288 | 36024 ft | 451 kts | 315° |
| 2026-05-04 13:50 | 51.02915 | 1.11713 | 36027 ft | 451 kts | 315° |
| 2026-05-04 13:50 | 51.07725 | 1.05292 | 36023 ft | 454 kts | 322° |
| 2026-05-04 13:51 | 51.12922 | 0.99561 | 36025 ft | 454 kts | 322° |
| 2026-05-04 13:51 | 51.18096 | 0.93828 | 36025 ft | 454 kts | 322° |
| 2026-05-04 13:52 | 51.25867 | 0.85194 | 36010 ft | 454 kts | 322° |
| 2026-05-04 13:53 | 51.31047 | 0.79420 | 36010 ft | 454 kts | 322° |
| 2026-05-04 13:53 | 51.36214 | 0.73644 | 36024 ft | 453 kts | 322° |
| 2026-05-04 13:54 | 51.43965 | 0.64949 | 36026 ft | 453 kts | 322° |
| 2026-05-04 13:55 | 51.51691 | 0.56222 | 36030 ft | 452 kts | 322° |
| 2026-05-04 13:55 | 51.59403 | 0.47487 | 36026 ft | 452 kts | 322° |
| 2026-05-04 13:56 | 51.64540 | 0.41653 | 36023 ft | 451 kts | 322° |
| 2026-05-04 13:57 | 51.72218 | 0.32900 | 36028 ft | 450 kts | 322° |
| 2026-05-04 13:58 | 51.82424 | 0.21218 | 36029 ft | 449 kts | 323° |
| 2026-05-04 13:58 | 51.90046 | 0.12430 | 36028 ft | 448 kts | 323° |
| 2026-05-04 13:59 | 51.95116 | 0.06570 | 36030 ft | 448 kts | 323° |
| 2026-05-04 14:00 | 52.02756 | -0.02186 | 36033 ft | 449 kts | 328° |
| 2026-05-04 14:00 | 52.11005 | -0.09435 | 36052 ft | 450 kts | 330° |
| 2026-05-04 14:01 | 52.16514 | -0.14274 | 36054 ft | 450 kts | 330° |
| 2026-05-04 14:02 | 52.24771 | -0.21550 | 36051 ft | 450 kts | 330° |
| 2026-05-04 14:02 | 52.30325 | -0.26465 | 36054 ft | 459 kts | 330° |
| 2026-05-04 14:03 | 52.35996 | -0.31495 | 36055 ft | 466 kts | 330° |
| 2026-05-04 14:03 | 52.41707 | -0.36553 | 36055 ft | 467 kts | 330° |
| 2026-05-04 14:04 | 52.50281 | -0.44196 | 36050 ft | 467 kts | 330° |
| 2026-05-04 14:04 | 52.55981 | -0.49318 | 36058 ft | 467 kts | 331° |
| 2026-05-04 14:05 | 52.64530 | -0.57004 | 36057 ft | 467 kts | 331° |
| 2026-05-04 14:06 | 52.70233 | -0.62138 | 36056 ft | 467 kts | 331° |
| 2026-05-04 14:06 | 52.75922 | -0.67275 | 36059 ft | 466 kts | 331° |
| 2026-05-04 14:07 | 52.81605 | -0.72434 | 36060 ft | 466 kts | 331° |
| 2026-05-04 14:07 | 52.87288 | -0.77608 | 36060 ft | 465 kts | 331° |
| 2026-05-04 14:08 | 52.92948 | -0.82781 | 36061 ft | 465 kts | 332° |
| 2026-05-04 14:08 | 52.98607 | -0.87974 | 36062 ft | 464 kts | 332° |
| 2026-05-04 14:09 | 53.07074 | -0.95750 | 36066 ft | 463 kts | 332° |
| 2026-05-04 14:10 | 53.15395 | -1.03421 | 36070 ft | 447 kts | 332° |
| 2026-05-04 14:10 | 53.20808 | -1.08430 | 36075 ft | 444 kts | 332° |
| 2026-05-04 14:10 | 53.23474 | -1.10905 | 35875 ft | 442 kts | 332° |
| 2026-05-04 14:11 | 53.26151 | -1.13393 | 35621 ft | 439 kts | 332° |
| 2026-05-04 14:11 | 53.31482 | -1.18346 | 35127 ft | 434 kts | 333° |
| 2026-05-04 14:11 | 53.34081 | -1.20771 | 34882 ft | 431 kts | 333° |
| 2026-05-04 14:12 | 53.36693 | -1.23215 | 34637 ft | 429 kts | 333° |
| 2026-05-04 14:12 | 53.39305 | -1.25601 | 34397 ft | 425 kts | 338° |
| 2026-05-04 14:12 | 53.44871 | -1.28363 | 33860 ft | 411 kts | 356° |
| 2026-05-04 14:13 | 53.47697 | -1.28747 | 33390 ft | 406 kts | 359° |
| 2026-05-04 14:13 | 53.50503 | -1.29081 | 32910 ft | 402 kts | 359° |
| 2026-05-04 14:13 | 53.53276 | -1.29418 | 32429 ft | 399 kts | 359° |
| 2026-05-04 14:13 | 53.56037 | -1.29808 | 31961 ft | 397 kts | 355° |
| 2026-05-04 14:14 | 53.58726 | -1.30848 | 31493 ft | 398 kts | 344° |
| 2026-05-04 14:14 | 53.63672 | -1.35129 | 30546 ft | 397 kts | 332° |
| 2026-05-04 14:14 | 53.65995 | -1.37496 | 30099 ft | 394 kts | 332° |
| 2026-05-04 14:15 | 53.70678 | -1.42230 | 29193 ft | 385 kts | 332° |
| 2026-05-04 14:15 | 53.75215 | -1.46830 | 28364 ft | 375 kts | 332° |
| 2026-05-04 14:16 | 53.79627 | -1.51333 | 27544 ft | 366 kts | 332° |
| 2026-05-04 14:16 | 53.81803 | -1.53555 | 27149 ft | 363 kts | 331° |
| 2026-05-04 14:17 | 53.86079 | -1.57928 | 26346 ft | 356 kts | 331° |
| 2026-05-04 14:17 | 53.88168 | -1.60059 | 25949 ft | 353 kts | 331° |
| 2026-05-04 14:17 | 53.92378 | -1.64382 | 25115 ft | 349 kts | 330° |
| 2026-05-04 14:18 | 53.94448 | -1.66515 | 24686 ft | 348 kts | 330° |
| 2026-05-04 14:18 | 53.98581 | -1.70771 | 23832 ft | 347 kts | 330° |
| 2026-05-04 14:19 | 54.02671 | -1.74988 | 22912 ft | 345 kts | 329° |
| 2026-05-04 14:19 | 54.04714 | -1.77097 | 22504 ft | 342 kts | 329° |
| 2026-05-04 14:19 | 54.06738 | -1.79195 | 22081 ft | 340 kts | 329° |
| 2026-05-04 14:19 | 54.08777 | -1.81314 | 21670 ft | 337 kts | 329° |
| 2026-05-04 14:20 | 54.10746 | -1.83363 | 21275 ft | 335 kts | 329° |
| 2026-05-04 14:20 | 54.12841 | -1.85052 | 20866 ft | 333 kts | 342° |
| 2026-05-04 14:20 | 54.15101 | -1.85840 | 20464 ft | 331 kts | 355° |
| 2026-05-04 14:21 | 54.19656 | -1.85001 | 19671 ft | 330 kts | 9° |
| 2026-05-04 14:21 | 54.21913 | -1.84292 | 19277 ft | 329 kts | 9° |
| 2026-05-04 14:21 | 54.24164 | -1.83584 | 18881 ft | 329 kts | 9° |
| 2026-05-04 14:21 | 54.26414 | -1.82877 | 18487 ft | 329 kts | 9° |
| 2026-05-04 14:22 | 54.28672 | -1.82169 | 18069 ft | 337 kts | 9° |
| 2026-05-04 14:22 | 54.31030 | -1.81432 | 17653 ft | 353 kts | 9° |
| 2026-05-04 14:22 | 54.33513 | -1.80657 | 17218 ft | 368 kts | 9° |
| 2026-05-04 14:22 | 54.36081 | -1.79851 | 16775 ft | 389 kts | 9° |
| 2026-05-04 14:23 | 54.41464 | -1.78150 | 16117 ft | 383 kts | 9° |
| 2026-05-04 14:23 | 54.44003 | -1.77338 | 15904 ft | 360 kts | 9° |
| 2026-05-04 14:23 | 54.46426 | -1.76564 | 15326 ft | 350 kts | 9° |
| 2026-05-04 14:24 | 54.48829 | -1.75798 | 14219 ft | 360 kts | 9° |
| 2026-05-04 14:24 | 54.51349 | -1.75004 | 13151 ft | 375 kts | 8° |
| 2026-05-04 14:24 | 54.53941 | -1.74188 | 12174 ft | 382 kts | 9° |
| 2026-05-04 14:24 | 54.56596 | -1.73349 | 11035 ft | 394 kts | 9° |
| 2026-05-04 14:25 | 54.59277 | -1.72499 | 9931 ft | 388 kts | 9° |
| 2026-05-04 14:25 | 54.64250 | -1.70897 | 9153 ft | 335 kts | 9° |
| 2026-05-04 14:25 | 54.66449 | -1.70186 | 9024 ft | 308 kts | 9° |
| 2026-05-04 14:26 | 54.68487 | -1.69531 | 9039 ft | 299 kts | 8° |
| 2026-05-04 14:26 | 54.70547 | -1.68854 | 9043 ft | 303 kts | 12° |
| 2026-05-04 14:26 | 54.72517 | -1.67521 | 9040 ft | 306 kts | 24° |
| 2026-05-04 14:26 | 54.74423 | -1.65857 | 8925 ft | 308 kts | 25° |
| 2026-05-04 14:27 | 54.76322 | -1.64167 | 8645 ft | 306 kts | 25° |
| 2026-05-04 14:27 | 54.78138 | -1.62547 | 8400 ft | 303 kts | 25° |
| 2026-05-04 14:27 | 54.79369 | -1.61447 | 8227 ft | 299 kts | 25° |
| 2026-05-04 14:27 | 54.81191 | -1.59813 | 7973 ft | 292 kts | 25° |
| 2026-05-04 14:28 | 54.82977 | -1.58208 | 7718 ft | 286 kts | 25° |
| 2026-05-04 14:28 | 54.84728 | -1.56634 | 7418 ft | 281 kts | 25° |
| 2026-05-04 14:28 | 54.86425 | -1.55100 | 7119 ft | 268 kts | 25° |
| 2026-05-04 14:28 | 54.88032 | -1.53636 | 6827 ft | 255 kts | 25° |
| 2026-05-04 14:29 | 54.91115 | -1.50813 | 6224 ft | 248 kts | 25° |
| 2026-05-04 14:29 | 54.94140 | -1.48020 | 5598 ft | 245 kts | 25° |
| 2026-05-04 14:30 | 54.95644 | -1.46624 | 5291 ft | 244 kts | 25° |
| 2026-05-04 14:30 | 54.97135 | -1.45240 | 4986 ft | 243 kts | 25° |
| 2026-05-04 14:30 | 55.00099 | -1.42483 | 4365 ft | 242 kts | 25° |
| 2026-05-04 14:31 | 55.01588 | -1.41093 | 4055 ft | 242 kts | 25° |
| 2026-05-04 14:31 | 55.04482 | -1.38416 | 3434 ft | 227 kts | 19° |
| 2026-05-04 14:32 | 55.07369 | -1.38619 | 2935 ft | 201 kts | 341° |
| 2026-05-04 14:32 | 55.08650 | -1.39323 | 2768 ft | 184 kts | 328° |
| 2026-05-04 14:32 | 55.09570 | -1.40680 | 2585 ft | 166 kts | 304° |
| 2026-05-04 14:32 | 55.10065 | -1.42416 | 2414 ft | 156 kts | 284° |
| 2026-05-04 14:33 | 55.10149 | -1.44265 | 2227 ft | 152 kts | 263° |
| 2026-05-04 14:33 | 55.09844 | -1.46026 | 2051 ft | 153 kts | 245° |
| 2026-05-04 14:33 | 55.09406 | -1.47685 | 1955 ft | 146 kts | 246° |
| 2026-05-04 14:33 | 55.08991 | -1.49270 | 1936 ft | 142 kts | 246° |
| 2026-05-04 14:34 | 55.08569 | -1.50880 | 1926 ft | 150 kts | 246° |
| 2026-05-04 14:34 | 55.08129 | -1.52555 | 1931 ft | 154 kts | 245° |
| 2026-05-04 14:34 | 55.07681 | -1.54253 | 1867 ft | 153 kts | 246° |
| 2026-05-04 14:34 | 55.07259 | -1.55856 | 1741 ft | 142 kts | 246° |
| 2026-05-04 14:35 | 55.06850 | -1.57409 | 1529 ft | 138 kts | 246° |
| 2026-05-04 14:35 | 55.06561 | -1.58483 | 1418 ft | 136 kts | 244° |
| 2026-05-04 14:35 | 55.06060 | -1.59799 | 1236 ft | 135 kts | 250° |
| 2026-05-04 14:35 | 55.05777 | -1.61307 | 1061 ft | 137 kts | 248° |
| 2026-05-04 14:36 | 55.05394 | -1.62844 | 879 ft | 135 kts | 248° |
| 2026-05-04 14:36 | 55.05017 | -1.64337 | 704 ft | 137 kts | 246° |
| 2026-05-04 14:36 | 55.04617 | -1.65819 | 519 ft | 134 kts | 245° |
| 2026-05-04 14:36 | 55.04241 | -1.67294 | 318 ft | 135 kts | 246° |
| 2026-05-04 14:37 | 55.03854 | -1.68739 | 255 ft | 117 kts | 247° |
| 2026-05-04 14:37 | 55.03545 | -1.70017 | 624 ft | 120 kts | 250° |
| 2026-05-04 14:37 | 55.03211 | -1.71425 | 1295 ft | 128 kts | 249° |
| 2026-05-04 14:37 | 55.02808 | -1.72898 | 1740 ft | 149 kts | 248° |
| 2026-05-04 14:38 | 55.02318 | -1.74647 | 2021 ft | 172 kts | 246° |
| 2026-05-04 14:38 | 55.01790 | -1.76496 | 2752 ft | 163 kts | 241° |
| 2026-05-04 14:38 | 55.00901 | -1.77791 | 2988 ft | 188 kts | 202° |
| 2026-05-04 14:38 | 54.99478 | -1.77876 | 3001 ft | 222 kts | 168° |
| 2026-05-04 14:39 | 54.97984 | -1.76990 | 3007 ft | 233 kts | 161° |
| 2026-05-04 14:39 | 54.96428 | -1.75900 | 3014 ft | 245 kts | 160° |
| 2026-05-04 14:39 | 54.94839 | -1.74765 | 3758 ft | 247 kts | 160° |
| 2026-05-04 14:40 | 54.92245 | -1.70911 | 4920 ft | 257 kts | 113° |
| 2026-05-04 14:40 | 54.91982 | -1.67865 | 4992 ft | 258 kts | 82° |
| 2026-05-04 14:40 | 54.92532 | -1.64956 | 5005 ft | 257 kts | 63° |
| 2026-05-04 14:40 | 54.93329 | -1.62235 | 5008 ft | 258 kts | 61° |
| 2026-05-04 14:41 | 54.94179 | -1.59478 | 4911 ft | 258 kts | 60° |
| 2026-05-04 14:41 | 54.95016 | -1.56773 | 4725 ft | 251 kts | 60° |
| 2026-05-04 14:41 | 54.96637 | -1.51502 | 4364 ft | 246 kts | 60° |
| 2026-05-04 14:42 | 54.98246 | -1.46272 | 3916 ft | 244 kts | 60° |
| 2026-05-04 14:42 | 54.99045 | -1.43675 | 3658 ft | 243 kts | 60° |
| 2026-05-04 14:42 | 54.99843 | -1.41080 | 3409 ft | 242 kts | 60° |
| 2026-05-04 14:43 | 55.00637 | -1.38494 | 3150 ft | 241 kts | 60° |
| 2026-05-04 14:43 | 55.01676 | -1.36279 | 2883 ft | 235 kts | 31° |
| 2026-05-04 14:43 | 55.03158 | -1.35392 | 2716 ft | 221 kts | 357° |
| 2026-05-04 14:43 | 55.04630 | -1.35786 | 2583 ft | 210 kts | 342° |
| 2026-05-04 14:44 | 55.06013 | -1.36437 | 2456 ft | 203 kts | 341° |
| 2026-05-04 14:44 | 55.07350 | -1.37097 | 2336 ft | 194 kts | 340° |
| 2026-05-04 14:44 | 55.08566 | -1.37848 | 2209 ft | 177 kts | 322° |
| 2026-05-04 14:44 | 55.09421 | -1.39256 | 2076 ft | 163 kts | 303° |
| 2026-05-04 14:45 | 55.09950 | -1.40898 | 2001 ft | 153 kts | 289° |
| 2026-05-04 14:45 | 55.10188 | -1.42667 | 1935 ft | 151 kts | 274° |
| 2026-05-04 14:45 | 55.10133 | -1.44525 | 1927 ft | 152 kts | 258° |
| 2026-05-04 14:45 | 55.09781 | -1.46262 | 1928 ft | 153 kts | 246° |
| 2026-05-04 14:46 | 55.09315 | -1.48038 | 1939 ft | 169 kts | 246° |
| 2026-05-04 14:46 | 55.08816 | -1.49939 | 1929 ft | 173 kts | 246° |
| 2026-05-04 14:46 | 55.08322 | -1.51821 | 1923 ft | 173 kts | 246° |
| 2026-05-04 14:46 | 55.07820 | -1.53728 | 1899 ft | 163 kts | 245° |
| 2026-05-04 14:47 | 55.07363 | -1.55464 | 1768 ft | 154 kts | 247° |
| 2026-05-04 14:47 | 55.06930 | -1.57103 | 1580 ft | 147 kts | 246° |
| 2026-05-04 14:47 | 55.06515 | -1.58680 | 1410 ft | 139 kts | 246° |
| 2026-05-04 14:47 | 55.06111 | -1.60191 | 1220 ft | 137 kts | 248° |
| 2026-05-04 14:48 | 55.05723 | -1.61669 | 1030 ft | 136 kts | 247° |
| 2026-05-04 14:48 | 55.05320 | -1.63165 | 862 ft | 134 kts | 246° |
| 2026-05-04 14:48 | 55.04934 | -1.64670 | 642 ft | 136 kts | 246° |
| 2026-05-04 14:48 | 55.04541 | -1.66145 | 464 ft | 134 kts | 245° |
| 2026-05-04 14:49 | 55.04150 | -1.67605 | 277 ft | 133 kts | 247° |
| 2026-05-04 14:49 | 55.03799 | -1.68956 | 252 ft | 99 kts | 247° |
| 2026-05-04 14:49 | 55.03585 | -1.69772 | 260 ft | 40 kts | 248° |
| 2026-05-04 14:49 | 55.03588 | -1.70040 | 262 ft | 12 kts | 275° |
| 2026-05-04 14:50 | 55.03593 | -1.70169 | 264 ft | 11 kts | 273° |
| 2026-05-04 14:50 | 55.03598 | -1.70292 | 266 ft | 10 kts | 274° |
| 2026-05-04 14:50 | 55.03600 | -1.70418 | 267 ft | 11 kts | 263° |
| 2026-05-04 14:50 | 55.03593 | -1.70557 | 267 ft | 12 kts | 267° |
| 2026-05-04 14:51 | 55.03604 | -1.70706 | 267 ft | 13 kts | 319° |
| 2026-05-04 14:51 | 55.03647 | -1.70712 | 267 ft | 4 kts | 3° |
| 2026-05-04 14:51 | 55.03659 | -1.70711 | 267 ft | 0 kts | 4° |
| 2026-05-04 14:51 | 55.03661 | -1.70711 | 267 ft | 0 kts | 4° |